createdAt,value
2018-01-28T00:00:54.596Z,9.30
2018-01-28T00:03:22.082Z,7.05
2018-01-28T00:05:49.564Z,9.90
2018-01-28T00:08:17.054Z,12.73
2018-01-28T00:10:44.543Z,10.73
2018-01-28T00:13:12.035Z,8.52
2018-01-28T00:15:39.507Z,13.65
2018-01-28T00:18:07.399Z,8.25
2018-01-28T00:20:34.876Z,11.30
2018-01-28T00:23:02.360Z,9.05
2018-01-28T00:25:29.859Z,10.57
2018-01-28T00:27:57.340Z,14.57
2018-01-28T00:30:24.836Z,11.27
2018-01-28T00:32:52.799Z,14.48
2018-01-28T00:35:20.301Z,12.45
2018-01-28T00:37:47.775Z,11.57
2018-01-28T00:40:15.276Z,15.73
2018-01-28T00:42:42.750Z,13.15
2018-01-28T00:45:10.311Z,15.35
2018-01-28T00:47:37.755Z,14.05
2018-01-28T00:50:05.257Z,15.02
2018-01-28T00:52:32.862Z,17.40
2018-01-28T00:55:00.372Z,23.10
2018-01-28T00:57:27.866Z,16.92
2018-01-28T00:59:55.355Z,17.62
2018-01-28T01:02:22.826Z,14.75
2018-01-28T01:04:50.324Z,15.63
2018-01-28T01:07:17.805Z,14.55
2018-01-28T01:09:45.784Z,17.60
2018-01-28T01:12:13.651Z,15.32
2018-01-28T01:14:41.146Z,15.70
2018-01-28T01:17:08.623Z,16.33
2018-01-28T01:19:36.120Z,14.82
2018-01-28T01:22:03.605Z,19.02
2018-01-28T01:24:31.216Z,17.08
2018-01-28T01:26:59.086Z,19.15
2018-01-28T01:29:26.581Z,22.40
2018-01-28T01:31:54.456Z,16.23
2018-01-28T01:34:22.352Z,18.70
2018-01-28T01:36:49.840Z,18.52
2018-01-28T01:39:17.344Z,19.00
2018-01-28T01:41:44.828Z,17.98
2018-01-28T01:44:12.400Z,16.85
2018-01-28T01:46:39.966Z,20.98
2018-01-28T01:49:07.449Z,18.10
2018-01-28T01:51:35.425Z,17.25
2018-01-28T01:54:02.907Z,17.40
2018-01-28T01:56:30.794Z,19.37
2018-01-28T01:58:58.668Z,15.10
2018-01-28T02:01:26.561Z,21.10
2018-01-28T02:03:54.112Z,19.42
2018-01-28T02:06:22.089Z,19.55
2018-01-28T02:08:49.650Z,17.75
2018-01-28T02:11:17.236Z,19.00
2018-01-28T02:13:45.116Z,19.02
2018-01-28T02:16:13.013Z,18.83
2018-01-28T02:18:40.896Z,19.35
2018-01-28T02:21:08.452Z,18.90
2018-01-28T02:23:36.332Z,17.23
2018-01-28T02:26:04.223Z,18.65
2018-01-28T02:28:32.192Z,18.60
2018-01-28T02:31:00.087Z,17.30
2018-01-28T02:33:27.963Z,16.90
2018-01-28T02:35:55.855Z,17.67
2018-01-28T02:38:23.344Z,18.62
2018-01-28T02:40:50.869Z,19.80
2018-01-28T02:43:18.775Z,19.45
2018-01-28T02:45:46.287Z,17.80
2018-01-28T02:48:13.762Z,21.92
2018-01-28T02:50:41.261Z,17.62
2018-01-28T02:53:09.130Z,17.37
2018-01-28T02:55:36.630Z,18.17
2018-01-28T02:58:04.503Z,14.77
2018-01-28T03:00:32.391Z,20.92
2018-01-28T03:02:59.889Z,14.70
2018-01-28T03:05:27.362Z,20.27
2018-01-28T03:07:54.860Z,16.33
2018-01-28T03:10:22.352Z,16.30
2018-01-28T03:12:49.850Z,17.33
2018-01-28T03:15:17.322Z,14.60
2018-01-28T03:17:44.810Z,17.10
2018-01-28T03:20:12.296Z,15.63
2018-01-28T03:22:39.795Z,12.43
2018-01-28T03:25:07.276Z,14.23
2018-01-28T03:27:35.168Z,16.75
2018-01-28T03:30:03.039Z,15.13
2018-01-28T03:32:30.928Z,13.98
2018-01-28T03:34:58.817Z,14.70
2018-01-28T03:37:26.316Z,16.45
2018-01-28T03:39:53.796Z,15.65
2018-01-28T03:42:21.308Z,15.90
2018-01-28T03:44:49.178Z,16.10
2018-01-28T03:47:16.676Z,15.57
2018-01-28T03:49:44.160Z,16.48
2018-01-28T03:52:11.696Z,12.65
2018-01-28T03:54:39.179Z,15.45
2018-01-28T03:57:07.144Z,11.32
2018-01-28T03:59:34.628Z,10.05
2018-01-28T04:02:02.523Z,12.82
2018-01-28T04:04:30.065Z,10.93
2018-01-28T04:06:57.973Z,12.45
2018-01-28T04:09:25.455Z,11.77
2018-01-28T04:11:52.988Z,10.10
2018-01-28T04:14:20.466Z,14.63
2018-01-28T04:16:48.350Z,14.57
2018-01-28T04:19:16.315Z,11.98
2018-01-28T04:21:43.813Z,11.85
2018-01-28T04:24:11.688Z,11.80
2018-01-28T04:26:39.587Z,10.63
2018-01-28T04:29:07.072Z,12.77
2018-01-28T04:31:34.592Z,11.93
2018-01-28T04:34:02.088Z,14.57
2018-01-28T04:36:29.626Z,15.13
2018-01-28T04:38:57.125Z,13.62
2018-01-28T04:41:25.000Z,13.23
2018-01-28T04:43:52.888Z,13.25
2018-01-28T04:46:20.372Z,13.10
2018-01-28T04:48:47.865Z,13.55
2018-01-28T04:51:15.343Z,12.57
2018-01-28T04:53:42.846Z,11.50
2018-01-28T04:56:10.714Z,13.23
2018-01-28T04:58:38.220Z,12.20
2018-01-28T05:01:05.700Z,11.55
2018-01-28T05:03:33.243Z,13.43
2018-01-28T05:06:01.122Z,14.25
2018-01-28T05:08:29.170Z,12.65
2018-01-28T05:10:56.657Z,11.52
2018-01-28T05:13:24.162Z,13.98
2018-01-28T05:15:51.647Z,15.68
2018-01-28T05:18:19.190Z,13.18
2018-01-28T05:20:47.068Z,10.82
2018-01-28T05:23:14.958Z,12.73
2018-01-28T05:25:42.852Z,12.57
2018-01-28T05:28:10.352Z,12.23
2018-01-28T05:30:37.864Z,12.45
2018-01-28T05:33:05.371Z,11.20
2018-01-28T05:35:32.851Z,11.45
2018-01-28T05:38:00.352Z,11.95
2018-01-28T05:40:27.853Z,12.50
2018-01-28T05:42:55.744Z,12.00
2018-01-28T05:45:23.619Z,10.00
2018-01-28T05:47:51.583Z,9.88
2018-01-28T05:50:19.058Z,8.55
2018-01-28T05:52:46.560Z,9.13
2018-01-28T05:55:14.100Z,7.62
2018-01-28T05:57:41.577Z,8.48
2018-01-28T06:00:09.476Z,12.82
2018-01-28T06:02:36.955Z,9.38
2018-01-28T06:05:04.452Z,10.75
2018-01-28T06:07:31.923Z,8.63
2018-01-28T06:09:59.419Z,8.27
2018-01-28T06:12:26.900Z,7.75
2018-01-28T06:14:54.396Z,7.43
2018-01-28T06:17:21.871Z,7.75
2018-01-28T06:19:49.362Z,11.23
2018-01-28T06:22:16.831Z,9.90
2018-01-28T06:24:44.332Z,10.52
2018-01-28T06:27:11.808Z,10.65
2018-01-28T06:29:39.307Z,11.35
2018-01-28T06:32:06.805Z,13.32
2018-01-28T06:34:34.308Z,14.85
2018-01-28T06:37:01.793Z,13.35
2018-01-28T06:39:29.298Z,14.48
2018-01-28T06:41:57.175Z,16.75
2018-01-28T06:44:25.072Z,19.75
2018-01-28T06:46:52.565Z,17.87
2018-01-28T06:49:20.069Z,23.80
2018-01-28T06:51:47.647Z,26.40
2018-01-28T06:54:15.155Z,29.67
2018-01-28T06:56:42.704Z,42.38
2018-01-28T06:59:10.672Z,40.88
2018-01-28T07:01:38.190Z,42.75
2018-01-28T07:04:05.677Z,36.45
2018-01-28T07:06:33.160Z,38.97
2018-01-28T07:09:00.667Z,42.35
2018-01-28T07:11:28.568Z,49.83
2018-01-28T07:13:56.072Z,48.20
2018-01-28T07:16:23.578Z,56.85
2018-01-28T07:18:51.473Z,52.65
2018-01-28T07:21:18.983Z,50.30
2018-01-28T07:23:46.463Z,58.80
2018-01-28T07:26:13.969Z,56.03
2018-01-28T07:28:41.541Z,63.30
2018-01-28T07:31:09.040Z,62.17
2018-01-28T07:33:36.586Z,54.70
2018-01-28T07:36:04.079Z,51.75
2018-01-28T07:38:31.565Z,58.78
2018-01-28T07:40:59.068Z,57.40
2018-01-28T07:43:26.543Z,51.63
2018-01-28T07:45:54.131Z,52.35
2018-01-28T07:48:21.622Z,49.38
2018-01-28T07:50:49.515Z,41.35
2018-01-28T07:53:16.991Z,41.53
2018-01-28T07:55:44.517Z,42.53
2018-01-28T07:58:11.991Z,40.05
2018-01-28T08:00:39.572Z,38.10
2018-01-28T08:03:07.052Z,35.88
2018-01-28T08:05:34.961Z,33.53
2018-01-28T08:08:02.443Z,38.85
2018-01-28T08:13:29.646Z,33.38
2018-01-28T08:15:57.144Z,30.42
2018-01-28T08:18:24.629Z,27.40
2018-01-28T08:20:52.131Z,30.67
2018-01-28T08:23:19.612Z,32.53
2018-01-28T08:25:47.104Z,32.50
2018-01-28T08:28:15.084Z,34.45
2018-01-28T08:30:42.588Z,31.70
2018-01-28T08:33:10.074Z,28.65
2018-01-28T08:35:37.956Z,30.02
2018-01-28T08:38:05.927Z,34.90
2018-01-28T08:40:33.403Z,32.08
2018-01-28T08:43:01.296Z,32.55
2018-01-28T08:45:29.176Z,35.38
2018-01-28T08:47:57.076Z,34.10
2018-01-28T08:50:24.561Z,35.05
2018-01-28T08:52:52.057Z,30.58
2018-01-28T08:55:19.548Z,33.38
2018-01-28T08:57:47.048Z,37.05
2018-01-28T09:00:14.534Z,29.70
2018-01-28T09:02:42.053Z,34.75
2018-01-28T09:05:09.548Z,33.85
2018-01-28T09:07:37.448Z,35.05
2018-01-28T09:10:04.926Z,36.67
2018-01-28T09:12:32.428Z,39.67
2018-01-28T09:14:59.908Z,31.48
2018-01-28T09:17:27.412Z,34.22
2018-01-28T09:19:55.296Z,36.50
2018-01-28T09:22:23.196Z,30.90
2018-01-28T09:24:50.679Z,36.17
2018-01-28T09:27:18.184Z,34.55
2018-01-28T09:29:45.673Z,44.60
2018-01-28T09:32:13.570Z,46.83
2018-01-28T09:34:41.047Z,48.03
2018-01-28T09:37:08.543Z,29.92
2018-01-28T09:39:36.032Z,29.55
2018-01-28T09:42:03.634Z,30.37
2018-01-28T09:44:31.518Z,43.87
2018-01-28T09:46:59.424Z,26.60
2018-01-28T09:49:26.912Z,26.25
2018-01-28T09:51:54.411Z,28.23
2018-01-28T09:54:21.894Z,25.27
2018-01-28T09:56:49.407Z,25.55
2018-01-28T09:59:16.908Z,19.33
2018-01-28T10:01:44.400Z,20.35
2018-01-28T10:04:11.904Z,24.52
2018-01-28T10:06:39.774Z,26.23
2018-01-28T10:09:07.663Z,23.42
2018-01-28T10:11:35.624Z,21.77
2018-01-28T10:14:03.133Z,29.02
2018-01-28T10:16:30.616Z,32.58
2018-01-28T10:18:58.128Z,24.48
2018-01-28T10:21:25.783Z,32.78
2018-01-28T10:23:53.274Z,27.23
2018-01-28T10:26:20.765Z,26.30
2018-01-28T10:28:48.659Z,28.40
2018-01-28T10:31:16.228Z,27.55
2018-01-28T10:33:43.772Z,22.33
2018-01-28T10:36:11.251Z,22.75
2018-01-28T10:38:39.254Z,20.48
2018-01-28T10:41:06.781Z,20.05
2018-01-28T10:43:34.373Z,37.17
2018-01-28T10:46:01.856Z,22.23
2018-01-28T10:48:29.759Z,23.50
2018-01-28T10:50:57.243Z,22.15
2018-01-28T10:53:24.749Z,23.73
2018-01-28T10:55:52.236Z,22.58
2018-01-28T10:58:20.123Z,24.12
2018-01-28T11:00:48.008Z,22.30
2018-01-28T11:03:15.936Z,37.13
2018-01-28T11:05:43.424Z,29.02
2018-01-28T11:08:10.924Z,25.77
2018-01-28T11:10:38.800Z,24.25
2018-01-28T11:13:06.708Z,52.38
2018-01-28T11:15:34.183Z,46.37
2018-01-28T11:18:01.716Z,32.63
2018-01-28T11:20:29.209Z,20.48
2018-01-28T11:22:57.082Z,22.62
2018-01-28T11:25:25.111Z,23.75
2018-01-28T11:27:52.591Z,23.25
2018-01-28T11:30:20.196Z,19.58
2018-01-28T11:32:48.066Z,20.92
2018-01-28T11:35:15.575Z,20.45
2018-01-28T11:37:43.065Z,21.80
2018-01-28T11:40:10.563Z,19.48
2018-01-28T11:42:38.048Z,18.77
2018-01-28T11:45:05.549Z,19.17
2018-01-28T11:47:33.023Z,17.45
2018-01-28T11:50:00.528Z,18.35
2018-01-28T11:52:28.011Z,18.15
2018-01-28T11:54:55.508Z,20.48
2018-01-28T11:57:23.075Z,18.58
2018-01-28T11:59:50.576Z,17.75
2018-01-28T12:02:18.060Z,15.45
2018-01-28T12:04:45.564Z,25.88
2018-01-28T12:07:13.048Z,19.80
2018-01-28T12:09:40.548Z,17.80
2018-01-28T12:12:08.428Z,16.33
2018-01-28T12:14:36.333Z,21.90
2018-01-28T12:17:03.825Z,16.15
2018-01-28T12:19:31.322Z,16.30
2018-01-28T12:21:58.905Z,18.50
2018-01-28T12:24:26.435Z,18.40
2018-01-28T12:26:53.932Z,22.30
2018-01-28T12:29:21.432Z,22.62
2018-01-28T12:31:49.317Z,13.77
2018-01-28T12:34:17.212Z,23.30
2018-01-28T12:36:44.700Z,12.90
2018-01-28T12:39:12.200Z,16.62
2018-01-28T12:41:39.689Z,16.60
2018-01-28T12:44:07.587Z,18.70
2018-01-28T12:46:35.573Z,17.60
2018-01-28T12:49:03.123Z,18.52
2018-01-28T12:51:30.613Z,11.48
2018-01-28T12:53:58.571Z,7.62
2018-01-28T12:56:26.150Z,6.82
2018-01-28T12:58:54.036Z,7.18
2018-01-28T13:03:55.919Z,9.27
2018-01-28T13:06:23.504Z,8.77
2018-01-28T13:08:51.476Z,9.90
2018-01-28T13:11:18.972Z,7.70
2018-01-28T13:13:46.455Z,11.30
2018-01-28T13:16:13.952Z,8.98
2018-01-28T13:18:41.433Z,13.15
2018-01-28T13:21:08.924Z,9.80
2018-01-28T13:23:36.404Z,10.45
2018-01-28T13:26:03.898Z,11.88
2018-01-28T13:28:31.777Z,8.80
2018-01-28T13:30:59.284Z,7.03
2018-01-28T13:33:26.800Z,7.50
2018-01-28T13:35:54.694Z,8.38
2018-01-28T13:38:22.656Z,7.80
2018-01-28T13:40:50.153Z,9.10
2018-01-28T13:43:17.632Z,6.35
2018-01-28T13:45:45.131Z,5.35
2018-01-28T13:48:12.642Z,7.72
2018-01-28T13:50:40.131Z,9.63
2018-01-28T13:53:08.000Z,7.60
2018-01-28T13:55:35.883Z,6.10
2018-01-28T13:58:03.761Z,9.80
2018-01-28T14:00:31.656Z,10.00
2018-01-28T14:02:59.130Z,5.75
2018-01-28T14:05:26.629Z,10.18
2018-01-28T14:07:54.103Z,8.25
2018-01-28T14:10:21.604Z,6.70
2018-01-28T14:12:49.292Z,7.20
2018-01-28T14:15:17.197Z,6.10
2018-01-28T14:17:44.700Z,10.55
2018-01-28T14:20:12.196Z,8.23
2018-01-28T14:22:39.687Z,11.12
2018-01-28T14:25:07.585Z,11.82
2018-01-28T14:27:35.088Z,13.73
2018-01-28T14:30:02.563Z,7.25
2018-01-28T14:32:30.057Z,6.72
2018-01-28T14:34:57.532Z,6.80
2018-01-28T14:37:25.014Z,6.43
2018-01-28T14:39:52.992Z,10.27
2018-01-28T14:42:20.496Z,8.13
2018-01-28T14:44:47.980Z,7.90
2018-01-28T14:47:15.484Z,10.75
2018-01-28T14:49:42.962Z,6.87
2018-01-28T14:52:10.447Z,7.62
2018-01-28T14:54:38.318Z,8.55
2018-01-28T14:57:05.822Z,8.60
2018-01-28T14:59:33.309Z,10.02
2018-01-28T15:02:00.808Z,10.82
2018-01-28T15:04:28.304Z,8.98
2018-01-28T15:06:55.805Z,10.52
2018-01-28T15:09:23.284Z,9.65
2018-01-28T15:11:50.791Z,12.23
2018-01-28T15:14:28.099Z,12.20
2018-01-28T15:16:55.583Z,9.35
2018-01-28T15:19:23.164Z,7.15
2018-01-28T15:21:50.740Z,11.98
2018-01-28T15:24:20.418Z,8.80
2018-01-28T15:26:47.953Z,12.45
2018-01-28T15:29:15.508Z,10.20
2018-01-28T15:31:43.395Z,9.38
2018-01-28T15:34:10.880Z,12.35
2018-01-28T15:36:38.376Z,10.73
2018-01-28T15:39:05.844Z,7.65
2018-01-28T15:41:33.374Z,8.23
2018-01-28T15:44:01.248Z,9.10
2018-01-28T15:46:29.138Z,12.85
2018-01-28T15:48:57.016Z,13.95
2018-01-28T15:51:24.917Z,10.75
2018-01-28T15:53:52.397Z,8.95
2018-01-28T15:56:19.872Z,8.23
2018-01-28T15:58:47.372Z,7.70
2018-01-28T16:01:14.852Z,10.80
2018-01-28T16:03:42.349Z,7.60
2018-01-28T16:06:10.220Z,6.25
2018-01-28T16:08:38.196Z,7.03
2018-01-28T16:11:06.076Z,8.60
2018-01-28T16:13:33.972Z,7.45
2018-01-28T16:16:01.932Z,7.18
2018-01-28T16:18:29.507Z,8.63
2018-01-28T16:20:56.988Z,8.05
2018-01-28T16:23:24.878Z,7.45
2018-01-28T16:25:52.372Z,10.35
2018-01-28T16:28:19.872Z,10.00
2018-01-28T16:30:47.348Z,7.82
2018-01-28T16:33:14.853Z,11.52
2018-01-28T16:35:42.740Z,13.62
2018-01-28T16:38:10.638Z,8.77
2018-01-28T16:40:38.123Z,10.10
2018-01-28T16:43:05.636Z,9.90
2018-01-28T16:45:33.112Z,9.48
2018-01-28T16:48:00.999Z,9.45
2018-01-28T16:50:28.899Z,13.13
2018-01-28T16:52:56.396Z,10.02
2018-01-28T16:55:23.876Z,8.57
2018-01-28T16:57:51.413Z,11.05
2018-01-28T17:00:18.892Z,9.65
2018-01-28T17:02:46.429Z,8.93
2018-01-28T17:05:14.307Z,10.77
2018-01-28T17:07:42.288Z,14.98
2018-01-28T17:10:10.164Z,9.25
2018-01-28T17:12:37.664Z,11.20
2018-01-28T17:15:05.161Z,11.60
2018-01-28T17:17:32.667Z,10.63
2018-01-28T17:20:00.152Z,12.48
2018-01-28T17:22:28.145Z,13.27
2018-01-28T17:24:56.052Z,10.73
2018-01-28T17:27:23.540Z,11.80
2018-01-28T17:29:51.045Z,11.85
2018-01-28T17:32:18.535Z,10.65
2018-01-28T17:34:46.432Z,9.05
2018-01-28T17:37:13.977Z,10.20
2018-01-28T17:39:41.874Z,8.73
2018-01-28T17:42:09.428Z,8.32
2018-01-28T17:44:37.323Z,11.00
2018-01-28T17:47:05.314Z,10.80
2018-01-28T17:49:32.824Z,11.60
2018-01-28T17:52:00.299Z,9.43
2018-01-28T17:54:27.799Z,9.80
2018-01-28T17:56:55.286Z,10.25
2018-01-28T17:59:23.180Z,9.88
2018-01-28T18:01:50.800Z,10.25
2018-01-28T18:04:18.308Z,12.43
2018-01-28T18:06:46.283Z,11.23
2018-01-28T18:09:14.184Z,10.75
2018-01-28T18:11:41.674Z,7.87
2018-01-28T18:14:09.201Z,8.10
2018-01-28T18:16:37.089Z,10.98
2018-01-28T18:19:04.978Z,9.73
2018-01-28T18:21:32.537Z,13.18
2018-01-28T18:24:00.441Z,10.73
2018-01-28T18:26:27.959Z,8.52
2018-01-28T18:28:55.451Z,8.35
2018-01-28T18:31:23.566Z,10.77
2018-01-28T18:33:51.117Z,9.80
2018-01-28T18:36:18.996Z,10.10
2018-01-28T18:38:46.897Z,10.60
2018-01-28T18:41:14.383Z,13.10
2018-01-28T18:43:41.876Z,9.90
2018-01-28T18:46:09.380Z,9.88
2018-01-28T18:48:37.368Z,11.43
2018-01-28T18:51:05.380Z,11.12
2018-01-28T18:53:32.920Z,11.20
2018-01-28T18:56:00.894Z,13.13
2018-01-28T18:58:28.379Z,14.18
2018-01-28T19:00:56.276Z,12.73
2018-01-28T19:03:23.764Z,13.85
2018-01-28T19:05:51.313Z,11.70
2018-01-28T19:08:18.800Z,11.88
2018-01-28T19:10:46.307Z,14.13
2018-01-28T19:13:13.808Z,12.37
2018-01-28T19:15:41.704Z,13.32
2018-01-28T19:18:09.188Z,14.10
2018-01-28T19:20:36.696Z,15.60
2018-01-28T19:23:04.183Z,14.55
2018-01-28T19:25:31.702Z,13.55
2018-01-28T19:27:59.235Z,14.13
2018-01-28T19:30:26.744Z,22.00
2018-01-28T19:32:54.232Z,15.93
2018-01-28T19:35:21.740Z,14.02
2018-01-28T19:37:49.236Z,13.30
2018-01-28T19:40:17.127Z,13.23
2018-01-28T19:42:44.606Z,14.85
2018-01-28T19:45:12.107Z,12.13
2018-01-28T19:47:39.591Z,14.40
2018-01-28T19:50:07.086Z,13.85
2018-01-28T19:52:34.959Z,14.05
2018-01-28T19:55:02.462Z,11.85
2018-01-28T19:57:29.939Z,12.90
2018-01-28T19:59:57.467Z,15.98
2018-01-28T20:02:25.075Z,11.95
2018-01-28T20:04:52.588Z,16.23
2018-01-28T20:07:20.067Z,13.10
2018-01-28T20:09:47.671Z,13.27
2018-01-28T20:12:15.554Z,11.68
2018-01-28T20:14:43.455Z,13.95
2018-01-28T20:17:10.964Z,13.32
2018-01-28T20:19:38.447Z,10.32
2018-01-28T20:22:05.989Z,11.45
2018-01-28T20:24:33.452Z,12.50
2018-01-28T20:27:01.100Z,10.95
2018-01-28T20:29:28.587Z,10.82
2018-01-28T20:31:56.092Z,10.55
2018-01-28T20:34:23.576Z,11.12
2018-01-28T20:36:51.159Z,11.48
2018-01-28T20:39:18.648Z,11.55
2018-01-28T20:41:46.535Z,11.70
2018-01-28T20:44:14.088Z,10.10
2018-01-28T20:46:41.984Z,11.73
2018-01-28T20:49:09.531Z,11.25
2018-01-28T20:51:37.119Z,11.32
2018-01-28T20:54:05.004Z,12.50
2018-01-28T20:56:32.933Z,12.60
2018-01-28T20:59:00.444Z,11.38
2018-01-28T21:01:28.404Z,11.18
2018-01-28T21:03:55.900Z,9.45
2018-01-28T21:06:23.882Z,10.27
2018-01-28T21:08:51.764Z,8.35
2018-01-28T21:11:19.731Z,9.50
2018-01-28T21:13:47.224Z,9.45
2018-01-28T21:16:15.120Z,9.23
2018-01-28T21:18:42.612Z,10.23
2018-01-28T21:21:10.132Z,9.48
2018-01-28T21:23:38.005Z,8.65
2018-01-28T21:26:05.505Z,8.00
2018-01-28T21:28:32.992Z,8.25
2018-01-28T21:31:00.483Z,8.90
2018-01-28T21:33:27.955Z,8.25
2018-01-28T21:35:55.451Z,7.00
2018-01-28T21:38:22.932Z,8.55
2018-01-28T21:40:50.939Z,6.87
2018-01-28T21:43:18.428Z,7.07
2018-01-28T21:45:45.903Z,7.55
2018-01-28T21:48:13.409Z,10.05
2018-01-28T21:50:40.991Z,7.15
2018-01-28T21:53:08.563Z,7.40
2018-01-28T21:55:36.140Z,7.30
2018-01-28T21:58:04.027Z,8.73
2018-01-28T22:00:31.904Z,7.82
2018-01-28T22:02:59.798Z,7.20
2018-01-28T22:05:27.675Z,6.75
2018-01-28T22:07:55.580Z,7.03
2018-01-28T22:10:23.065Z,7.82
2018-01-28T22:12:50.551Z,8.45
2018-01-28T22:15:18.040Z,7.07
2018-01-28T22:17:45.544Z,5.95
2018-01-28T22:20:13.032Z,6.68
2018-01-28T22:22:40.537Z,5.75
2018-01-28T22:25:08.015Z,13.55
2018-01-28T22:27:35.508Z,6.43
2018-01-28T22:30:03.388Z,8.65
2018-01-28T22:32:31.280Z,5.95
2018-01-28T22:34:58.764Z,5.53
2018-01-28T22:37:26.265Z,7.00
2018-01-28T22:39:53.752Z,7.10
2018-01-28T22:42:21.344Z,6.37
2018-01-28T22:44:48.815Z,6.40
2018-01-28T22:47:16.702Z,6.65
2018-01-28T22:49:44.579Z,7.43
2018-01-28T22:52:12.471Z,8.45
2018-01-28T22:54:40.432Z,7.90
2018-01-28T22:57:07.927Z,7.87
2018-01-28T22:59:35.404Z,9.35
2018-01-28T23:02:02.903Z,9.48
2018-01-28T23:04:30.430Z,7.82
2018-01-28T23:06:58.320Z,8.63
2018-01-28T23:09:25.805Z,8.32
2018-01-28T23:11:53.357Z,12.07
2018-01-28T23:14:21.252Z,9.45
2018-01-28T23:16:48.726Z,8.93
2018-01-28T23:19:16.226Z,7.15
2018-01-28T23:21:43.703Z,6.95
2018-01-28T23:24:11.192Z,8.32
2018-01-28T23:26:38.676Z,7.32
2018-01-28T23:29:06.572Z,8.27
2018-01-28T23:31:34.052Z,6.50
2018-01-28T23:34:01.583Z,8.05
2018-01-28T23:36:29.068Z,9.15
2018-01-28T23:38:56.958Z,6.90
2018-01-28T23:41:24.924Z,6.07
2018-01-28T23:43:52.429Z,7.25
2018-01-28T23:46:19.907Z,5.60
2018-01-28T23:48:47.404Z,6.72
2018-01-28T23:51:14.884Z,6.07
2018-01-28T23:53:42.375Z,6.57
2018-01-28T23:56:09.846Z,5.78
2018-01-28T23:58:37.340Z,6.75
